createdAt,value
2023-01-07T00:01:43.934Z,0.97
2023-01-07T00:04:14.109Z,1.00
2023-01-07T00:06:43.117Z,1.00
2023-01-07T00:09:13.805Z,1.07
2023-01-07T00:11:41.536Z,0.90
2023-01-07T00:14:10.569Z,0.90
2023-01-07T00:16:38.175Z,1.00
2023-01-07T00:19:06.770Z,0.93
2023-01-07T00:21:34.110Z,0.80
2023-01-07T00:24:03.936Z,0.83
2023-01-07T00:26:33.528Z,1.47
2023-01-07T00:29:00.900Z,0.70
2023-01-07T00:31:31.545Z,0.77
2023-01-07T00:33:59.211Z,0.70
2023-01-07T00:36:31.570Z,0.93
2023-01-07T00:39:16.451Z,1.17
2023-01-07T00:42:03.778Z,0.97
2023-01-07T00:44:30.901Z,1.33
2023-01-07T00:46:58.852Z,2.00
2023-01-07T00:49:26.348Z,0.90
2023-01-07T00:51:53.392Z,1.30
2023-01-07T00:54:20.310Z,1.00
2023-01-07T00:56:47.173Z,2.30
2023-01-07T00:59:13.986Z,1.53
2023-01-07T01:01:40.965Z,1.67
2023-01-07T01:04:08.352Z,1.73
2023-01-07T01:06:35.352Z,1.30
2023-01-07T01:09:02.215Z,1.57
2023-01-07T01:11:29.117Z,1.50
2023-01-07T01:13:56.008Z,1.50
2023-01-07T01:16:22.929Z,3.00
2023-01-07T01:18:49.831Z,1.20
2023-01-07T01:21:17.293Z,1.30
2023-01-07T01:23:44.899Z,1.17
2023-01-07T01:26:14.322Z,1.30
2023-01-07T01:28:41.916Z,1.03
2023-01-07T01:31:09.475Z,1.57
2023-01-07T01:33:36.529Z,1.20
2023-01-07T01:36:08.261Z,1.20
2023-01-07T01:38:35.204Z,1.10
2023-01-07T01:41:02.332Z,1.10
2023-01-07T01:43:38.198Z,1.40
2023-01-07T01:46:33.384Z,3.23
2023-01-07T01:49:05.936Z,1.43
2023-01-07T01:51:37.155Z,1.53
2023-01-07T01:54:09.064Z,4.10
2023-01-07T01:56:42.812Z,1.80
2023-01-07T01:59:13.645Z,1.63
2023-01-07T02:01:40.726Z,1.70
2023-01-07T02:04:15.558Z,2.00
2023-01-07T02:06:48.275Z,1.67
2023-01-07T02:09:15.134Z,2.10
2023-01-07T02:11:57.069Z,1.40
2023-01-07T02:14:55.529Z,1.60
2023-01-07T02:17:59.668Z,1.67
2023-01-07T02:20:26.499Z,1.87
2023-01-07T02:23:11.737Z,1.63
2023-01-07T02:26:12.725Z,1.77
2023-01-07T02:28:54.493Z,2.60
2023-01-07T02:31:44.801Z,1.60
2023-01-07T02:34:33.425Z,1.77
2023-01-07T02:37:16.949Z,1.83
2023-01-07T02:40:22.443Z,2.23
2023-01-07T02:43:08.085Z,1.93
2023-01-07T02:46:10.278Z,2.03
2023-01-07T02:48:39.112Z,1.90
2023-01-07T02:51:06.104Z,2.80
2023-01-07T02:53:34.126Z,2.00
2023-01-07T02:56:12.923Z,2.30
2023-01-07T02:59:07.916Z,1.80
2023-01-07T03:01:37.744Z,1.83
2023-01-07T03:04:57.389Z,4.20
2023-01-07T03:07:42.234Z,3.60
2023-01-07T03:10:38.328Z,1.40
2023-01-07T03:13:12.035Z,3.47
2023-01-07T03:15:55.762Z,1.60
2023-01-07T03:18:30.337Z,1.70
2023-01-07T03:21:03.280Z,2.00
2023-01-07T03:23:31.221Z,2.20
2023-01-07T03:26:03.311Z,1.70
2023-01-07T03:28:33.435Z,2.87
2023-01-07T03:31:01.298Z,1.70
2023-01-07T03:33:36.933Z,1.50
2023-01-07T03:36:06.708Z,1.67
2023-01-07T03:38:35.057Z,1.93
2023-01-07T03:41:02.632Z,1.53
2023-01-07T03:43:29.729Z,1.90
2023-01-07T03:45:57.926Z,1.67
2023-01-07T03:48:24.793Z,1.60
2023-01-07T03:50:51.736Z,1.50
2023-01-07T03:53:18.555Z,3.10
2023-01-07T03:55:45.375Z,1.70
2023-01-07T03:58:12.343Z,1.53
2023-01-07T04:00:39.279Z,1.50
2023-01-07T04:03:06.145Z,1.67
2023-01-07T04:05:32.970Z,1.80
2023-01-07T04:07:59.808Z,1.90
2023-01-07T04:10:26.670Z,1.80
2023-01-07T04:12:53.639Z,1.60
2023-01-07T04:15:20.524Z,1.63
2023-01-07T04:17:47.805Z,1.70
2023-01-07T04:20:14.691Z,1.40
2023-01-07T04:22:41.549Z,2.00
2023-01-07T04:25:08.496Z,1.40
2023-01-07T04:27:35.439Z,1.53
2023-01-07T04:30:02.322Z,1.53
2023-01-07T04:32:29.148Z,1.53
2023-01-07T04:34:56.011Z,1.63
2023-01-07T04:37:22.891Z,1.93
2023-01-07T04:39:49.738Z,3.70
2023-01-07T04:42:16.599Z,1.73
2023-01-07T04:44:43.934Z,1.60
2023-01-07T04:47:10.744Z,1.93
2023-01-07T04:49:37.590Z,1.90
2023-01-07T04:52:04.704Z,3.33
2023-01-07T04:54:31.525Z,2.37
2023-01-07T04:56:58.463Z,1.87
2023-01-07T04:59:25.330Z,2.40
2023-01-07T05:01:52.321Z,1.77
2023-01-07T05:04:19.315Z,1.87
2023-01-07T05:06:46.191Z,2.00
2023-01-07T05:09:13.143Z,2.00
2023-01-07T05:11:39.976Z,1.90
2023-01-07T05:14:06.871Z,2.60
2023-01-07T05:16:33.869Z,2.10
2023-01-07T05:19:00.712Z,2.30
2023-01-07T05:21:28.002Z,2.20
2023-01-07T05:23:54.871Z,2.20
2023-01-07T05:26:22.056Z,2.00
2023-01-07T05:28:48.891Z,2.37
2023-01-07T05:31:15.895Z,1.90
2023-01-07T05:33:42.765Z,2.20
2023-01-07T05:36:09.697Z,2.20
2023-01-07T05:38:36.604Z,1.80
2023-01-07T05:41:03.627Z,2.13
2023-01-07T05:43:30.727Z,2.23
2023-01-07T05:45:59.371Z,2.53
2023-01-07T05:48:26.390Z,2.40
2023-01-07T05:50:53.254Z,2.67
2023-01-07T05:53:20.079Z,2.10
2023-01-07T05:55:46.943Z,2.07
2023-01-07T05:58:13.826Z,2.27
2023-01-07T06:00:40.922Z,2.50
2023-01-07T06:03:07.830Z,2.13
2023-01-07T06:05:34.728Z,2.20
2023-01-07T06:08:01.640Z,2.50
2023-01-07T06:10:28.506Z,2.50
2023-01-07T06:12:55.434Z,2.63
2023-01-07T06:15:22.301Z,3.27
2023-01-07T06:17:49.129Z,2.03
2023-01-07T06:20:16.251Z,2.17
2023-01-07T06:22:43.380Z,2.20
2023-01-07T06:25:11.617Z,2.13
2023-01-07T06:27:40.777Z,2.13
2023-01-07T06:30:09.457Z,2.30
2023-01-07T06:32:41.061Z,2.13
2023-01-07T06:35:09.544Z,2.10
2023-01-07T06:37:36.400Z,2.23
2023-01-07T06:40:03.687Z,2.63
2023-01-07T06:42:30.544Z,2.53
2023-01-07T06:44:57.428Z,2.03
2023-01-07T06:47:25.444Z,2.00
2023-01-07T06:49:52.840Z,2.03
2023-01-07T06:52:19.909Z,2.00
2023-01-07T06:54:48.475Z,2.20
2023-01-07T06:57:15.591Z,2.00
2023-01-07T06:59:42.439Z,2.20
2023-01-07T07:02:18.746Z,1.73
2023-01-07T07:04:45.922Z,1.93
2023-01-07T07:07:12.997Z,2.20
2023-01-07T07:09:40.166Z,1.90
2023-01-07T07:12:07.530Z,1.80
2023-01-07T07:14:34.739Z,2.00
2023-01-07T07:17:01.873Z,1.80
2023-01-07T07:19:28.718Z,1.97
2023-01-07T07:21:55.603Z,2.77
2023-01-07T07:24:22.630Z,1.97
2023-01-07T07:26:50.220Z,1.70
2023-01-07T07:29:17.188Z,1.93
2023-01-07T07:31:44.239Z,1.60
2023-01-07T07:34:11.683Z,1.70
2023-01-07T07:36:38.532Z,1.37
2023-01-07T07:39:05.777Z,2.83
2023-01-07T07:41:32.612Z,1.30
2023-01-07T07:43:59.499Z,1.70
2023-01-07T07:46:26.384Z,1.47
2023-01-07T07:48:53.323Z,1.30
2023-01-07T07:51:20.081Z,1.20
2023-01-07T07:53:46.965Z,3.90
2023-01-07T07:56:13.894Z,1.20
2023-01-07T07:58:40.714Z,2.23
2023-01-07T08:01:07.626Z,1.37
2023-01-07T08:03:34.581Z,1.20
2023-01-07T08:06:01.473Z,1.20
2023-01-07T08:08:28.820Z,1.10
2023-01-07T08:10:56.363Z,1.33
2023-01-07T08:13:23.701Z,1.40
2023-01-07T08:15:50.548Z,1.43
2023-01-07T08:18:19.157Z,1.17
2023-01-07T08:20:47.322Z,1.57
2023-01-07T08:23:14.318Z,1.17
2023-01-07T08:25:41.232Z,1.10
2023-01-07T08:28:09.418Z,1.20
2023-01-07T08:30:36.406Z,1.60
2023-01-07T08:33:07.990Z,1.40
2023-01-07T08:35:34.945Z,1.53
2023-01-07T08:38:03.632Z,1.60
2023-01-07T08:40:30.617Z,1.60
2023-01-07T08:43:01.569Z,1.70
2023-01-07T08:45:29.139Z,2.00
2023-01-07T08:47:58.813Z,1.63
2023-01-07T08:50:27.705Z,1.50
2023-01-07T08:52:54.975Z,1.60
2023-01-07T08:55:22.469Z,1.97
2023-01-07T08:57:49.706Z,1.40
2023-01-07T09:00:17.797Z,2.30
2023-01-07T09:02:45.059Z,1.50
2023-01-07T09:05:12.273Z,1.40
2023-01-07T09:07:39.241Z,1.30
2023-01-07T09:10:07.027Z,1.43
2023-01-07T09:12:33.999Z,1.70
2023-01-07T09:15:00.905Z,1.70
2023-01-07T09:17:28.293Z,2.40
2023-01-07T09:19:55.126Z,1.53
2023-01-07T09:22:21.944Z,1.40
2023-01-07T09:24:48.884Z,1.57
2023-01-07T09:27:16.726Z,1.40
2023-01-07T09:29:43.699Z,1.70
2023-01-07T09:32:10.814Z,1.57
2023-01-07T09:34:38.531Z,1.63
2023-01-07T09:37:06.074Z,1.77
2023-01-07T09:39:33.005Z,2.00
2023-01-07T09:42:12.991Z,1.77
2023-01-07T09:44:57.410Z,1.77
2023-01-07T09:47:29.268Z,1.67
2023-01-07T09:50:01.857Z,1.90
2023-01-07T09:52:40.217Z,1.80
2023-01-07T09:55:19.919Z,2.13
2023-01-07T09:57:47.215Z,2.13
2023-01-07T10:00:20.968Z,2.60
2023-01-07T10:03:23.551Z,2.20
2023-01-07T10:06:17.107Z,2.73
2023-01-07T10:09:28.134Z,3.00
2023-01-07T10:12:10.952Z,3.10
2023-01-07T10:15:06.363Z,2.90
2023-01-07T10:17:51.797Z,3.57
2023-01-07T10:20:27.869Z,3.60
2023-01-07T10:23:03.427Z,3.80
2023-01-07T10:25:40.058Z,3.70
2023-01-07T10:28:10.975Z,4.80
2023-01-07T10:30:43.793Z,4.50
2023-01-07T10:33:26.719Z,4.47
2023-01-07T10:36:13.707Z,4.53
2023-01-07T10:38:44.490Z,4.90
2023-01-07T10:41:22.674Z,4.00
2023-01-07T10:44:10.867Z,4.47
2023-01-07T10:47:42.312Z,4.70
2023-01-07T10:50:26.988Z,4.20
2023-01-07T10:53:33.067Z,4.43
2023-01-07T10:56:18.651Z,4.10
2023-01-07T10:58:47.133Z,4.90
2023-01-07T11:01:33.807Z,4.07
2023-01-07T11:04:01.277Z,3.80
2023-01-07T11:06:59.055Z,4.00
2023-01-07T11:09:36.469Z,5.07
2023-01-07T11:12:21.038Z,4.70
2023-01-07T11:14:49.730Z,4.30
2023-01-07T11:17:44.181Z,5.33
2023-01-07T11:20:11.229Z,5.13
2023-01-07T11:22:39.585Z,4.70
2023-01-07T11:25:28.883Z,4.63
2023-01-07T11:28:01.878Z,4.43
2023-01-07T11:30:32.975Z,4.07
2023-01-07T11:33:03.921Z,3.70
2023-01-07T11:35:31.096Z,4.00
2023-01-07T11:37:59.252Z,3.33
2023-01-07T11:40:31.681Z,2.77
2023-01-07T11:43:20.586Z,3.00
2023-01-07T11:46:19.877Z,2.80
2023-01-07T11:48:39.427Z,2.53
2023-01-07T11:51:10.788Z,2.60
2023-01-07T11:53:49.846Z,2.50
2023-01-07T11:56:25.359Z,2.47
2023-01-07T11:59:11.395Z,2.80
2023-01-07T12:01:50.106Z,2.13
2023-01-07T12:04:21.708Z,2.40
2023-01-07T12:06:51.114Z,2.10
2023-01-07T12:09:28.372Z,1.90
2023-01-07T12:11:58.104Z,2.10
2023-01-07T12:14:34.497Z,2.33
2023-01-07T12:17:20.203Z,1.93
2023-01-07T12:19:59.191Z,1.77
2023-01-07T12:22:59.307Z,1.77
2023-01-07T12:25:35.215Z,1.60
2023-01-07T12:28:24.828Z,1.73
2023-01-07T12:31:03.566Z,1.67
2023-01-07T12:34:02.723Z,1.80
2023-01-07T12:36:43.719Z,1.70
2023-01-07T12:39:20.723Z,1.50
2023-01-07T12:42:03.013Z,1.53
2023-01-07T12:44:30.141Z,1.80
2023-01-07T12:47:31.836Z,4.60
2023-01-07T12:50:12.652Z,1.83
2023-01-07T12:53:03.488Z,1.40
2023-01-07T12:55:34.789Z,1.70
2023-01-07T12:58:05.401Z,1.67
2023-01-07T13:01:00.455Z,1.90
2023-01-07T13:04:04.008Z,1.87
2023-01-07T13:06:30.799Z,1.93
2023-01-07T13:09:01.909Z,2.00
2023-01-07T13:11:57.261Z,2.10
2023-01-07T13:14:37.890Z,2.43
2023-01-07T13:17:24.462Z,2.10
2023-01-07T13:19:52.023Z,2.20
2023-01-07T13:22:30.983Z,1.90
2023-01-07T13:25:12.602Z,2.80
2023-01-07T13:27:58.293Z,1.80
2023-01-07T13:30:52.217Z,2.47
2023-01-07T13:33:41.049Z,1.70
2023-01-07T13:36:17.188Z,2.20
2023-01-07T13:38:50.629Z,1.87
2023-01-07T13:41:46.385Z,1.87
2023-01-07T13:44:22.250Z,1.90
2023-01-07T13:46:49.748Z,2.07
2023-01-07T13:49:33.915Z,2.90
2023-01-07T13:52:22.125Z,2.00
2023-01-07T13:54:49.053Z,2.17
2023-01-07T13:57:30.786Z,1.87
2023-01-07T14:00:06.820Z,2.20
2023-01-07T14:02:56.574Z,2.67
2023-01-07T14:05:28.757Z,2.60
2023-01-07T14:08:01.223Z,2.70
2023-01-07T14:10:33.268Z,3.10
2023-01-07T14:13:05.944Z,2.40
2023-01-07T14:15:56.547Z,2.17
2023-01-07T14:18:29.227Z,2.00
2023-01-07T14:21:26.088Z,1.97
2023-01-07T14:24:10.861Z,2.20
2023-01-07T14:26:50.785Z,2.57
2023-01-07T14:30:15.320Z,1.97
2023-01-07T14:32:44.706Z,2.03
2023-01-07T14:35:11.549Z,2.10
2023-01-07T14:37:40.706Z,2.50
2023-01-07T14:40:26.754Z,2.70
2023-01-07T14:42:54.562Z,2.50
2023-01-07T14:45:36.713Z,2.40
2023-01-07T14:48:28.091Z,2.33
2023-01-07T14:51:00.871Z,2.93
2023-01-07T14:53:58.361Z,2.73
2023-01-07T14:57:04.215Z,1.60
2023-01-07T15:00:01.326Z,1.90
2023-01-07T15:02:37.102Z,2.20
2023-01-07T15:05:32.062Z,2.00
2023-01-07T15:08:30.760Z,1.83
2023-01-07T15:11:18.274Z,2.40
2023-01-07T15:14:16.028Z,2.60
2023-01-07T15:16:46.713Z,2.53
2023-01-07T15:19:14.208Z,2.20
2023-01-07T15:22:07.885Z,1.70
2023-01-07T15:25:00.038Z,1.73
2023-01-07T15:28:01.991Z,2.27
2023-01-07T15:30:44.016Z,3.07
2023-01-07T15:33:57.518Z,3.07
2023-01-07T15:36:24.956Z,3.43
2023-01-07T15:38:54.394Z,3.40
2023-01-07T15:41:35.130Z,3.80
2023-01-07T15:44:17.538Z,3.33
2023-01-07T15:46:44.701Z,2.77
2023-01-07T15:49:11.516Z,3.40
2023-01-07T15:51:40.510Z,2.87
2023-01-07T15:54:22.949Z,3.00
2023-01-07T15:56:54.004Z,3.03
2023-01-07T15:59:28.270Z,2.93
2023-01-07T16:02:13.098Z,3.13
2023-01-07T16:04:42.104Z,3.33
2023-01-07T16:07:21.839Z,3.47
2023-01-07T16:09:49.527Z,4.17
2023-01-07T16:12:25.076Z,3.37
2023-01-07T16:14:51.935Z,3.50
2023-01-07T16:17:19.783Z,3.87
2023-01-07T16:19:47.058Z,3.50
2023-01-07T16:22:21.738Z,4.13
2023-01-07T16:24:51.046Z,4.43
2023-01-07T16:27:29.205Z,3.90
2023-01-07T16:29:59.416Z,4.27
2023-01-07T16:32:26.949Z,4.80
2023-01-07T16:35:02.060Z,3.90
2023-01-07T16:37:29.782Z,5.47
2023-01-07T16:39:57.005Z,5.17
2023-01-07T16:42:24.354Z,5.13
2023-01-07T16:44:51.171Z,10.27
2023-01-07T16:47:28.604Z,7.23
2023-01-07T16:50:20.071Z,6.27
2023-01-07T16:52:52.186Z,6.40
2023-01-07T16:55:56.355Z,6.90
2023-01-07T16:58:27.969Z,8.67
2023-01-07T17:00:56.946Z,9.37
2023-01-07T17:03:25.201Z,7.93
2023-01-07T17:06:08.197Z,8.63
2023-01-07T17:08:35.745Z,10.50
2023-01-07T17:11:08.332Z,15.10
2023-01-07T17:13:39.152Z,15.63
2023-01-07T17:16:29.007Z,11.77
2023-01-07T17:18:57.618Z,13.67
2023-01-07T17:21:42.557Z,12.57
2023-01-07T17:24:27.845Z,13.70
2023-01-07T17:27:03.914Z,17.27
2023-01-07T17:29:39.419Z,10.00
2023-01-07T17:32:06.674Z,11.43
2023-01-07T17:34:33.524Z,14.70
2023-01-07T17:37:00.358Z,10.60
2023-01-07T17:39:27.196Z,10.97
2023-01-07T17:42:12.437Z,8.83
2023-01-07T17:44:39.348Z,9.17
2023-01-07T17:47:09.975Z,7.93
2023-01-07T17:49:36.844Z,7.77
2023-01-07T17:52:03.802Z,7.40
2023-01-07T17:54:32.242Z,25.20
2023-01-07T17:56:59.062Z,13.40
2023-01-07T17:59:25.992Z,12.97
2023-01-07T18:01:55.166Z,13.70
2023-01-07T18:04:22.431Z,37.00
2023-01-07T18:06:49.290Z,25.37
2023-01-07T18:09:16.172Z,19.23
2023-01-07T18:12:04.591Z,9.10
2023-01-07T18:14:32.645Z,9.40
2023-01-07T18:16:59.660Z,13.70
2023-01-07T18:19:26.544Z,13.70
2023-01-07T18:21:53.464Z,15.20
2023-01-07T18:24:21.634Z,15.20
2023-01-07T18:26:48.619Z,21.80
2023-01-07T18:29:15.582Z,25.40
2023-01-07T18:31:44.293Z,29.73
2023-01-07T18:34:13.134Z,33.03
2023-01-07T18:36:40.008Z,32.77
2023-01-07T18:39:09.971Z,45.33
2023-01-07T18:41:39.400Z,67.73
2023-01-07T18:44:06.315Z,87.80
2023-01-07T18:46:33.302Z,220.37
2023-01-07T18:49:00.421Z,34.97
2023-01-07T18:51:27.443Z,15.47
2023-01-07T18:53:54.283Z,15.33
2023-01-07T18:56:21.195Z,14.00
2023-01-07T18:58:52.007Z,13.80
2023-01-07T19:01:19.169Z,16.23
2023-01-07T19:03:46.662Z,16.30
2023-01-07T19:06:14.650Z,14.60
2023-01-07T19:08:41.763Z,12.30
2023-01-07T19:11:10.217Z,11.23
2023-01-07T19:13:37.229Z,10.70
2023-01-07T19:16:13.504Z,9.83
2023-01-07T19:18:40.879Z,9.17
2023-01-07T19:21:10.864Z,8.60
2023-01-07T19:23:37.740Z,8.40
2023-01-07T19:26:07.219Z,9.17
2023-01-07T19:28:34.128Z,9.00
2023-01-07T19:31:05.764Z,9.30
2023-01-07T19:33:33.074Z,9.40
2023-01-07T19:36:07.776Z,10.20
2023-01-07T19:38:41.967Z,9.13
2023-01-07T19:41:10.673Z,9.33
2023-01-07T19:43:39.011Z,8.67
2023-01-07T19:46:07.386Z,12.33
2023-01-07T19:48:34.510Z,10.10
2023-01-07T19:51:02.961Z,8.37
2023-01-07T19:53:30.942Z,9.53
2023-01-07T19:56:02.689Z,10.57
2023-01-07T19:58:30.154Z,9.10
2023-01-07T20:01:03.497Z,9.87
2023-01-07T20:03:33.983Z,10.57
2023-01-07T20:06:02.797Z,12.13
2023-01-07T20:08:29.738Z,11.53
2023-01-07T20:10:59.115Z,10.63
2023-01-07T20:13:27.925Z,10.27
2023-01-07T20:15:55.035Z,9.00
2023-01-07T20:18:22.951Z,11.00
2023-01-07T20:20:58.315Z,8.47
2023-01-07T20:23:26.478Z,9.80
2023-01-07T20:25:53.576Z,9.73
2023-01-07T20:28:21.599Z,9.40
2023-01-07T20:30:48.491Z,9.23
2023-01-07T20:33:15.414Z,13.20
2023-01-07T20:35:43.230Z,13.63
2023-01-07T20:38:11.498Z,11.53
2023-01-07T20:40:39.990Z,19.43
2023-01-07T20:43:07.673Z,10.67
2023-01-07T20:45:38.166Z,9.90
2023-01-07T20:48:05.442Z,10.30
2023-01-07T20:50:35.728Z,9.53
2023-01-07T20:53:02.882Z,10.40
2023-01-07T20:55:29.796Z,14.17
2023-01-07T20:57:56.652Z,10.30
2023-01-07T21:00:23.900Z,9.97
2023-01-07T21:02:50.831Z,11.40
2023-01-07T21:05:20.640Z,10.73
2023-01-07T21:07:48.111Z,12.27
2023-01-07T21:10:16.678Z,10.27
2023-01-07T21:12:43.710Z,13.67
2023-01-07T21:15:13.023Z,12.30
2023-01-07T21:17:42.937Z,13.83
2023-01-07T21:20:13.743Z,11.40
2023-01-07T21:22:41.097Z,11.63
2023-01-07T21:25:11.345Z,12.90
2023-01-07T21:27:38.606Z,13.70
2023-01-07T21:30:07.297Z,12.27
2023-01-07T21:32:35.242Z,11.93
2023-01-07T21:35:02.290Z,11.63
2023-01-07T21:37:29.470Z,11.10
2023-01-07T21:39:56.365Z,14.60
2023-01-07T21:42:23.229Z,10.67
2023-01-07T21:44:50.100Z,11.87
2023-01-07T21:47:16.931Z,11.37
2023-01-07T21:49:44.014Z,12.50
2023-01-07T21:52:10.973Z,11.57
2023-01-07T21:54:37.951Z,10.00
2023-01-07T21:57:04.787Z,10.90
2023-01-07T21:59:31.686Z,9.90
2023-01-07T22:01:58.636Z,12.53
2023-01-07T22:04:26.999Z,9.13
2023-01-07T22:06:54.001Z,10.37
2023-01-07T22:09:21.139Z,10.60
2023-01-07T22:11:48.002Z,10.50
2023-01-07T22:14:17.775Z,11.67
2023-01-07T22:16:46.314Z,12.13
2023-01-07T22:19:14.338Z,11.33
2023-01-07T22:21:41.243Z,11.00
2023-01-07T22:24:08.185Z,10.70
2023-01-07T22:26:36.201Z,10.10
2023-01-07T22:29:07.709Z,11.47
2023-01-07T22:31:39.135Z,11.43
2023-01-07T22:34:06.995Z,14.20
2023-01-07T22:36:43.812Z,11.20
2023-01-07T22:39:46.202Z,10.20
2023-01-07T22:42:22.642Z,10.73
2023-01-07T22:45:02.893Z,10.23
2023-01-07T22:47:36.126Z,10.27
2023-01-07T22:50:05.567Z,11.00
2023-01-07T22:52:33.178Z,11.20
2023-01-07T22:55:00.928Z,11.30
2023-01-07T22:57:29.551Z,12.17
2023-01-07T22:59:59.050Z,10.73
2023-01-07T23:02:26.283Z,10.57
2023-01-07T23:04:53.207Z,10.47
2023-01-07T23:07:20.249Z,11.30
2023-01-07T23:09:47.102Z,11.33
2023-01-07T23:12:14.035Z,10.83
2023-01-07T23:14:40.911Z,9.80
2023-01-07T23:17:07.959Z,10.50
2023-01-07T23:19:35.767Z,11.03
2023-01-07T23:22:02.631Z,10.73
2023-01-07T23:24:29.517Z,11.63
2023-01-07T23:26:57.342Z,9.30
2023-01-07T23:29:24.350Z,10.33
2023-01-07T23:31:52.072Z,10.93
2023-01-07T23:34:19.228Z,10.77
2023-01-07T23:36:46.161Z,9.70
2023-01-07T23:39:13.128Z,10.53
2023-01-07T23:41:39.970Z,11.83
2023-01-07T23:44:06.843Z,10.07
2023-01-07T23:46:33.775Z,10.57
2023-01-07T23:49:00.653Z,10.23
2023-01-07T23:51:27.562Z,10.70
2023-01-07T23:53:54.547Z,10.83
2023-01-07T23:56:22.317Z,10.10
2023-01-07T23:58:50.453Z,10.80
